sensor_id;sensor_type;location;lat;lon;timestamp;pressure;altitude;pressure_sealevel;temperature;humidity
39275;BME280;24980;48.874;2.332;2023-04-26T00:00:26;101383.39;;;25.46;45.01
39275;BME280;24980;48.874;2.332;2023-04-26T00:02:57;101393.78;;;25.48;45.01
39275;BME280;24980;48.874;2.332;2023-04-26T00:05:26;101392.61;;;25.49;45.00
39275;BME280;24980;48.874;2.332;2023-04-26T00:07:56;101395.79;;;25.51;44.99
39275;BME280;24980;48.874;2.332;2023-04-26T00:10:26;101395.95;;;25.52;44.98
39275;BME280;24980;48.874;2.332;2023-04-26T00:12:56;101395.52;;;25.52;44.98
39275;BME280;24980;48.874;2.332;2023-04-26T00:15:26;101392.00;;;25.53;44.98
39275;BME280;24980;48.874;2.332;2023-04-26T00:17:56;101393.61;;;25.54;44.98
39275;BME280;24980;48.874;2.332;2023-04-26T00:20:26;101388.18;;;25.53;44.99
39275;BME280;24980;48.874;2.332;2023-04-26T00:22:56;101387.49;;;25.54;44.99
39275;BME280;24980;48.874;2.332;2023-04-26T00:25:26;101381.55;;;25.54;44.98
39275;BME280;24980;48.874;2.332;2023-04-26T00:28:03;101375.55;;;25.56;44.98
39275;BME280;24980;48.874;2.332;2023-04-26T00:30:33;101375.88;;;25.58;44.99
39275;BME280;24980;48.874;2.332;2023-04-26T00:32:57;101368.56;;;25.59;44.96
39275;BME280;24980;48.874;2.332;2023-04-26T00:35:28;101363.69;;;25.59;44.95
39275;BME280;24980;48.874;2.332;2023-04-26T00:37:58;101368.78;;;25.60;44.95
39275;BME280;24980;48.874;2.332;2023-04-26T00:40:29;101365.47;;;25.60;44.93
39275;BME280;24980;48.874;2.332;2023-04-26T00:42:58;101365.98;;;25.59;44.93
39275;BME280;24980;48.874;2.332;2023-04-26T00:45:28;101363.35;;;25.59;44.92
39275;BME280;24980;48.874;2.332;2023-04-26T00:48:00;101360.46;;;25.60;44.91
39275;BME280;24980;48.874;2.332;2023-04-26T00:50:29;101352.80;;;25.61;44.89
39275;BME280;24980;48.874;2.332;2023-04-26T00:53:01;101351.66;;;25.63;44.87
39275;BME280;24980;48.874;2.332;2023-04-26T00:55:29;101351.89;;;25.64;44.86
39275;BME280;24980;48.874;2.332;2023-04-26T00:57:59;101348.57;;;25.65;44.85
39275;BME280;24980;48.874;2.332;2023-04-26T01:03:00;101352.09;;;25.66;44.82
39275;BME280;24980;48.874;2.332;2023-04-26T01:05:31;101347.08;;;25.66;44.82
39275;BME280;24980;48.874;2.332;2023-04-26T01:08:01;101341.14;;;25.66;44.82
39275;BME280;24980;48.874;2.332;2023-04-26T01:10:34;101333.67;;;25.66;44.83
39275;BME280;24980;48.874;2.332;2023-04-26T01:13:02;101333.41;;;25.67;44.83
39275;BME280;24980;48.874;2.332;2023-04-26T01:15:32;101332.88;;;25.68;44.81
39275;BME280;24980;48.874;2.332;2023-04-26T01:18:02;101330.55;;;25.69;44.80
39275;BME280;24980;48.874;2.332;2023-04-26T01:20:32;101336.55;;;25.71;44.81
39275;BME280;24980;48.874;2.332;2023-04-26T01:23:03;101332.73;;;25.72;44.81
39275;BME280;24980;48.874;2.332;2023-04-26T01:25:33;101324.70;;;25.73;44.81
39275;BME280;24980;48.874;2.332;2023-04-26T01:28:03;101316.12;;;25.73;44.82
39275;BME280;24980;48.874;2.332;2023-04-26T01:30:33;101309.50;;;25.73;44.81
39275;BME280;24980;48.874;2.332;2023-04-26T01:33:03;101307.20;;;25.74;44.81
39275;BME280;24980;48.874;2.332;2023-04-26T01:35:33;101305.75;;;25.74;44.80
39275;BME280;24980;48.874;2.332;2023-04-26T01:38:03;101306.04;;;25.76;44.79
39275;BME280;24980;48.874;2.332;2023-04-26T01:40:33;101314.94;;;25.77;44.78
39275;BME280;24980;48.874;2.332;2023-04-26T01:43:03;101319.39;;;25.79;44.75
39275;BME280;24980;48.874;2.332;2023-04-26T01:45:33;101316.91;;;25.80;44.71
39275;BME280;24980;48.874;2.332;2023-04-26T01:48:03;101315.80;;;25.81;44.69
39275;BME280;24980;48.874;2.332;2023-04-26T01:50:34;101311.55;;;25.81;44.68
39275;BME280;24980;48.874;2.332;2023-04-26T01:53:04;101313.08;;;25.81;44.68
39275;BME280;24980;48.874;2.332;2023-04-26T01:55:34;101313.43;;;25.80;44.68
39275;BME280;24980;48.874;2.332;2023-04-26T01:58:04;101315.04;;;25.80;44.67
39275;BME280;24980;48.874;2.332;2023-04-26T02:00:35;101325.09;;;25.82;44.66
39275;BME280;24980;48.874;2.332;2023-04-26T02:03:04;101315.23;;;25.83;44.63
39275;BME280;24980;48.874;2.332;2023-04-26T02:05:40;101310.16;;;25.85;44.59
39275;BME280;24980;48.874;2.332;2023-04-26T02:08:04;101298.17;;;25.86;44.58
39275;BME280;24980;48.874;2.332;2023-04-26T02:10:34;101291.45;;;25.87;44.60
39275;BME280;24980;48.874;2.332;2023-04-26T02:13:07;101292.42;;;25.88;44.62
39275;BME280;24980;48.874;2.332;2023-04-26T02:15:35;101295.72;;;25.89;44.63
39275;BME280;24980;48.874;2.332;2023-04-26T02:18:05;101302.84;;;25.90;44.62
39275;BME280;24980;48.874;2.332;2023-04-26T02:20:35;101300.89;;;25.90;44.60
39275;BME280;24980;48.874;2.332;2023-04-26T02:23:05;101303.21;;;25.92;44.57
39275;BME280;24980;48.874;2.332;2023-04-26T02:25:35;101304.30;;;25.93;44.52
39275;BME280;24980;48.874;2.332;2023-04-26T02:28:05;101309.05;;;25.93;44.49
39275;BME280;24980;48.874;2.332;2023-04-26T02:30:35;101310.15;;;25.94;44.47
39275;BME280;24980;48.874;2.332;2023-04-26T02:33:05;101309.76;;;25.96;44.46
39275;BME280;24980;48.874;2.332;2023-04-26T02:38:06;101307.80;;;25.96;44.43
39275;BME280;24980;48.874;2.332;2023-04-26T02:40:36;101309.00;;;25.95;44.42
39275;BME280;24980;48.874;2.332;2023-04-26T02:43:06;101300.67;;;25.96;44.40
39275;BME280;24980;48.874;2.332;2023-04-26T02:45:42;101303.22;;;25.96;44.38
39275;BME280;24980;48.874;2.332;2023-04-26T02:48:06;101298.28;;;25.97;44.35
39275;BME280;24980;48.874;2.332;2023-04-26T02:50:36;101294.67;;;25.98;44.32
39275;BME280;24980;48.874;2.332;2023-04-26T02:53:06;101293.89;;;25.99;44.29
39275;BME280;24980;48.874;2.332;2023-04-26T02:55:38;101284.89;;;25.99;44.27
39275;BME280;24980;48.874;2.332;2023-04-26T02:58:07;101285.14;;;25.99;44.26
39275;BME280;24980;48.874;2.332;2023-04-26T03:00:37;101287.10;;;25.98;44.23
39275;BME280;24980;48.874;2.332;2023-04-26T03:03:07;101290.75;;;25.98;44.23
39275;BME280;24980;48.874;2.332;2023-04-26T03:05:37;101295.43;;;25.98;44.21
39275;BME280;24980;48.874;2.332;2023-04-26T03:08:10;101292.75;;;25.97;44.20
39275;BME280;24980;48.874;2.332;2023-04-26T03:10:46;101291.01;;;25.98;44.19
39275;BME280;24980;48.874;2.332;2023-04-26T03:13:08;101291.69;;;25.99;44.17
39275;BME280;24980;48.874;2.332;2023-04-26T03:15:38;101290.14;;;26.00;44.15
39275;BME280;24980;48.874;2.332;2023-04-26T03:18:08;101286.14;;;26.00;44.13
39275;BME280;24980;48.874;2.332;2023-04-26T03:20:38;101279.86;;;26.00;44.13
39275;BME280;24980;48.874;2.332;2023-04-26T03:23:08;101283.02;;;25.99;44.14
39275;BME280;24980;48.874;2.332;2023-04-26T03:25:38;101278.09;;;25.99;44.13
39275;BME280;24980;48.874;2.332;2023-04-26T03:28:08;101283.45;;;25.98;44.15
39275;BME280;24980;48.874;2.332;2023-04-26T03:30:38;101286.34;;;25.98;44.15
39275;BME280;24980;48.874;2.332;2023-04-26T03:33:08;101283.52;;;25.99;44.14
39275;BME280;24980;48.874;2.332;2023-04-26T03:35:38;101284.31;;;26.01;44.11
39275;BME280;24980;48.874;2.332;2023-04-26T03:38:08;101285.83;;;26.02;44.09
39275;BME280;24980;48.874;2.332;2023-04-26T03:40:44;101284.80;;;26.02;44.08
39275;BME280;24980;48.874;2.332;2023-04-26T03:43:09;101286.23;;;26.03;44.07
39275;BME280;24980;48.874;2.332;2023-04-26T03:45:39;101288.97;;;26.03;44.06
39275;BME280;24980;48.874;2.332;2023-04-26T03:48:09;101279.70;;;26.03;44.06
39275;BME280;24980;48.874;2.332;2023-04-26T03:50:39;101276.23;;;26.02;44.07
39275;BME280;24980;48.874;2.332;2023-04-26T03:53:10;101271.75;;;26.01;44.07
39275;BME280;24980;48.874;2.332;2023-04-26T03:55:40;101278.78;;;26.02;44.05
39275;BME280;24980;48.874;2.332;2023-04-26T03:58:10;101279.96;;;26.03;44.04
39275;BME280;24980;48.874;2.332;2023-04-26T04:00:40;101275.02;;;26.04;44.02
39275;BME280;24980;48.874;2.332;2023-04-26T04:03:11;101272.55;;;26.04;44.00
39275;BME280;24980;48.874;2.332;2023-04-26T04:05:41;101269.38;;;26.04;43.99
39275;BME280;24980;48.874;2.332;2023-04-26T04:08:11;101273.09;;;26.05;43.98
39275;BME280;24980;48.874;2.332;2023-04-26T04:13:12;101275.74;;;26.04;43.98
39275;BME280;24980;48.874;2.332;2023-04-26T04:15:42;101278.20;;;26.04;43.99
39275;BME280;24980;48.874;2.332;2023-04-26T04:18:12;101279.22;;;26.05;43.99
39275;BME280;24980;48.874;2.332;2023-04-26T04:20:42;101283.45;;;26.06;44.01
39275;BME280;24980;48.874;2.332;2023-04-26T04:23:12;101278.34;;;26.07;44.05
39275;BME280;24980;48.874;2.332;2023-04-26T04:25:42;101275.14;;;26.08;44.09
39275;BME280;24980;48.874;2.332;2023-04-26T04:28:12;101270.89;;;26.08;44.07
39275;BME280;24980;48.874;2.332;2023-04-26T04:30:42;101273.69;;;26.09;44.06
39275;BME280;24980;48.874;2.332;2023-04-26T04:33:12;101271.75;;;26.08;44.04
39275;BME280;24980;48.874;2.332;2023-04-26T04:35:42;101269.42;;;26.07;44.04
39275;BME280;24980;48.874;2.332;2023-04-26T04:38:12;101272.41;;;26.06;44.02
39275;BME280;24980;48.874;2.332;2023-04-26T04:40:42;101281.58;;;26.06;44.00
39275;BME280;24980;48.874;2.332;2023-04-26T04:43:17;101276.05;;;26.06;43.98
39275;BME280;24980;48.874;2.332;2023-04-26T04:45:42;101271.76;;;26.07;43.96
39275;BME280;24980;48.874;2.332;2023-04-26T04:48:12;101272.02;;;26.08;43.93
39275;BME280;24980;48.874;2.332;2023-04-26T04:50:42;101275.12;;;26.07;43.91
39275;BME280;24980;48.874;2.332;2023-04-26T04:53:13;101274.27;;;26.07;43.90
39275;BME280;24980;48.874;2.332;2023-04-26T04:55:43;101273.68;;;26.06;43.90
39275;BME280;24980;48.874;2.332;2023-04-26T04:58:13;101277.42;;;26.06;43.89
39275;BME280;24980;48.874;2.332;2023-04-26T05:00:43;101272.08;;;26.05;43.90
39275;BME280;24980;48.874;2.332;2023-04-26T05:03:13;101267.92;;;26.05;43.90
39275;BME280;24980;48.874;2.332;2023-04-26T05:05:43;101264.25;;;26.06;43.86
39275;BME280;24980;48.874;2.332;2023-04-26T05:08:13;101258.47;;;26.06;43.88
39275;BME280;24980;48.874;2.332;2023-04-26T05:10:44;101264.36;;;26.08;43.87
39275;BME280;24980;48.874;2.332;2023-04-26T05:13:32;101267.58;;;26.09;43.86
39275;BME280;24980;48.874;2.332;2023-04-26T05:15:44;101263.75;;;26.09;43.85
39275;BME280;24980;48.874;2.332;2023-04-26T05:18:14;101268.94;;;26.09;43.85
39275;BME280;24980;48.874;2.332;2023-04-26T05:20:44;101268.58;;;26.10;43.84
39275;BME280;24980;48.874;2.332;2023-04-26T05:23:15;101273.85;;;26.10;43.84
39275;BME280;24980;48.874;2.332;2023-04-26T05:25:45;101280.42;;;26.11;43.83
39275;BME280;24980;48.874;2.332;2023-04-26T05:28:15;101287.64;;;26.12;43.82
39275;BME280;24980;48.874;2.332;2023-04-26T05:30:45;101287.16;;;26.14;43.80
39275;BME280;24980;48.874;2.332;2023-04-26T05:33:15;101283.75;;;26.14;43.78
39275;BME280;24980;48.874;2.332;2023-04-26T05:35:45;101293.93;;;26.15;43.76
39275;BME280;24980;48.874;2.332;2023-04-26T05:38:15;101286.38;;;26.15;43.76
39275;BME280;24980;48.874;2.332;2023-04-26T05:40:46;101289.69;;;26.15;43.76
39275;BME280;24980;48.874;2.332;2023-04-26T05:43:16;101291.83;;;26.14;43.77
39275;BME280;24980;48.874;2.332;2023-04-26T05:45:53;101287.06;;;26.14;43.77
39275;BME280;24980;48.874;2.332;2023-04-26T05:48:16;101284.06;;;26.12;43.78
39275;BME280;24980;48.874;2.332;2023-04-26T05:50:47;101288.90;;;26.13;43.79
39275;BME280;24980;48.874;2.332;2023-04-26T05:53:18;101291.02;;;26.13;43.79
39275;BME280;24980;48.874;2.332;2023-04-26T05:55:48;101281.59;;;26.13;43.79
39275;BME280;24980;48.874;2.332;2023-04-26T05:58:18;101280.59;;;26.11;43.83
39275;BME280;24980;48.874;2.332;2023-04-26T06:00:49;101285.16;;;26.13;43.82
39275;BME280;24980;48.874;2.332;2023-04-26T06:03:19;101285.28;;;26.14;43.81
39275;BME280;24980;48.874;2.332;2023-04-26T06:05:52;101282.92;;;26.18;43.76
39275;BME280;24980;48.874;2.332;2023-04-26T06:08:20;101289.05;;;26.21;43.75
39275;BME280;24980;48.874;2.332;2023-04-26T06:10:50;101295.67;;;26.22;43.75
39275;BME280;24980;48.874;2.332;2023-04-26T06:13:20;101299.43;;;26.21;43.77
39275;BME280;24980;48.874;2.332;2023-04-26T06:15:54;101297.53;;;26.19;43.81
39275;BME280;24980;48.874;2.332;2023-04-26T06:18:21;101296.25;;;26.20;43.84
39275;BME280;24980;48.874;2.332;2023-04-26T06:20:54;101298.30;;;26.19;43.84
39275;BME280;24980;48.874;2.332;2023-04-26T06:23:22;101301.60;;;26.19;43.83
39275;BME280;24980;48.874;2.332;2023-04-26T06:25:52;101302.37;;;26.20;43.81
39275;BME280;24980;48.874;2.332;2023-04-26T06:28:22;101298.72;;;26.19;43.79
39275;BME280;24980;48.874;2.332;2023-04-26T06:30:52;101295.24;;;26.19;43.78
39275;BME280;24980;48.874;2.332;2023-04-26T06:33:22;101292.11;;;26.18;43.78
39275;BME280;24980;48.874;2.332;2023-04-26T06:35:55;101288.49;;;26.15;43.79
39275;BME280;24980;48.874;2.332;2023-04-26T06:38:23;101288.22;;;26.13;43.77
39275;BME280;24980;48.874;2.332;2023-04-26T06:40:53;101289.98;;;25.99;43.47
39275;BME280;24980;48.874;2.332;2023-04-26T06:43:23;101287.38;;;25.87;43.16
39275;BME280;24980;48.874;2.332;2023-04-26T06:45:53;101292.03;;;25.84;42.97
39275;BME280;24980;48.874;2.332;2023-04-26T06:48:23;101296.22;;;25.86;42.84
39275;BME280;24980;48.874;2.332;2023-04-26T06:51:04;101297.52;;;25.89;42.80
39275;BME280;24980;48.874;2.332;2023-04-26T06:53:25;101300.22;;;25.90;42.78
39275;BME280;24980;48.874;2.332;2023-04-26T06:55:53;101297.95;;;25.91;42.78
39275;BME280;24980;48.874;2.332;2023-04-26T06:58:23;101305.00;;;25.92;42.79
39275;BME280;24980;48.874;2.332;2023-04-26T07:00:53;101306.91;;;25.91;42.84
39275;BME280;24980;48.874;2.332;2023-04-26T07:03:23;101311.25;;;25.90;42.88
39275;BME280;24980;48.874;2.332;2023-04-26T07:05:54;101304.80;;;25.90;42.89
39275;BME280;24980;48.874;2.332;2023-04-26T07:08:27;101309.47;;;25.90;42.88
39275;BME280;24980;48.874;2.332;2023-04-26T07:10:54;101307.04;;;25.92;42.86
39275;BME280;24980;48.874;2.332;2023-04-26T07:13:24;101302.11;;;25.92;42.85
39275;BME280;24980;48.874;2.332;2023-04-26T07:15:54;101305.16;;;25.93;42.84
39275;BME280;24980;48.874;2.332;2023-04-26T07:18:27;101313.47;;;25.93;42.84
39275;BME280;24980;48.874;2.332;2023-04-26T07:20:55;101314.33;;;25.93;42.84
39275;BME280;24980;48.874;2.332;2023-04-26T07:23:25;101316.20;;;25.92;42.86
39275;BME280;24980;48.874;2.332;2023-04-26T07:25:57;101312.91;;;25.91;42.89
39275;BME280;24980;48.874;2.332;2023-04-26T07:28:25;101312.23;;;25.91;42.95
39275;BME280;24980;48.874;2.332;2023-04-26T07:30:55;101306.41;;;25.90;42.97
39275;BME280;24980;48.874;2.332;2023-04-26T07:33:26;101303.95;;;25.90;42.98
39275;BME280;24980;48.874;2.332;2023-04-26T07:35:58;101302.75;;;25.91;42.97
39275;BME280;24980;48.874;2.332;2023-04-26T07:38:26;101302.34;;;25.90;42.97
39275;BME280;24980;48.874;2.332;2023-04-26T07:40:56;101298.11;;;25.89;42.99
39275;BME280;24980;48.874;2.332;2023-04-26T07:43:29;101298.95;;;25.88;42.99
39275;BME280;24980;48.874;2.332;2023-04-26T07:46:02;101292.94;;;25.88;42.99
39275;BME280;24980;48.874;2.332;2023-04-26T07:48:27;101285.25;;;25.87;43.00
39275;BME280;24980;48.874;2.332;2023-04-26T07:51:11;101281.19;;;25.86;43.00
39275;BME280;24980;48.874;2.332;2023-04-26T07:53:29;101282.34;;;25.84;43.04
39275;BME280;24980;48.874;2.332;2023-04-26T07:56:09;101288.48;;;25.82;43.07
39275;BME280;24980;48.874;2.332;2023-04-26T07:58:29;101284.80;;;25.81;43.10
39275;BME280;24980;48.874;2.332;2023-04-26T08:01:00;101287.84;;;25.78;43.13
39275;BME280;24980;48.874;2.332;2023-04-26T08:03:30;101291.59;;;25.76;43.15
39275;BME280;24980;48.874;2.332;2023-04-26T08:06:01;101291.61;;;25.76;43.18
39275;BME280;24980;48.874;2.332;2023-04-26T08:08:31;101290.25;;;25.75;43.19
39275;BME280;24980;48.874;2.332;2023-04-26T08:11:01;101290.08;;;25.75;43.21
39275;BME280;24980;48.874;2.332;2023-04-26T08:13:31;101290.89;;;25.75;43.22
39275;BME280;24980;48.874;2.332;2023-04-26T08:16:01;101291.70;;;25.75;43.24
39275;BME280;24980;48.874;2.332;2023-04-26T08:18:32;101291.14;;;25.74;43.24
39275;BME280;24980;48.874;2.332;2023-04-26T08:21:02;101283.77;;;25.74;43.25
39275;BME280;24980;48.874;2.332;2023-04-26T08:23:32;101283.44;;;25.73;43.26
39275;BME280;24980;48.874;2.332;2023-04-26T08:26:02;101278.91;;;25.71;43.27
39275;BME280;24980;48.874;2.332;2023-04-26T08:28:32;101276.11;;;25.70;43.27
39275;BME280;24980;48.874;2.332;2023-04-26T08:31:02;101278.77;;;25.69;43.28
39275;BME280;24980;48.874;2.332;2023-04-26T08:33:32;101271.34;;;25.67;43.29
39275;BME280;24980;48.874;2.332;2023-04-26T08:36:02;101268.46;;;25.67;43.30
39275;BME280;24980;48.874;2.332;2023-04-26T08:38:32;101269.70;;;25.65;43.33
39275;BME280;24980;48.874;2.332;2023-04-26T08:41:04;101270.48;;;25.64;43.34
39275;BME280;24980;48.874;2.332;2023-04-26T08:43:35;101274.81;;;25.63;43.35
39275;BME280;24980;48.874;2.332;2023-04-26T08:46:06;101273.28;;;25.64;43.35
39275;BME280;24980;48.874;2.332;2023-04-26T08:48:35;101275.33;;;25.63;43.37
39275;BME280;24980;48.874;2.332;2023-04-26T08:51:05;101268.72;;;25.62;43.42
39275;BME280;24980;48.874;2.332;2023-04-26T08:53:36;101272.11;;;25.62;43.50
39275;BME280;24980;48.874;2.332;2023-04-26T08:56:06;101267.19;;;25.62;43.57
39275;BME280;24980;48.874;2.332;2023-04-26T08:58:36;101266.89;;;25.62;43.61
39275;BME280;24980;48.874;2.332;2023-04-26T09:01:09;101274.20;;;25.61;43.63
39275;BME280;24980;48.874;2.332;2023-04-26T09:03:36;101274.38;;;25.60;43.64
39275;BME280;24980;48.874;2.332;2023-04-26T09:06:06;101274.09;;;25.58;43.65
39275;BME280;24980;48.874;2.332;2023-04-26T09:08:39;101276.41;;;25.56;43.65
39275;BME280;24980;48.874;2.332;2023-04-26T09:11:07;101271.28;;;25.54;43.68
39275;BME280;24980;48.874;2.332;2023-04-26T09:13:37;101266.47;;;25.53;43.71
39275;BME280;24980;48.874;2.332;2023-04-26T09:16:07;101266.86;;;25.51;43.76
39275;BME280;24980;48.874;2.332;2023-04-26T09:18:51;101266.01;;;25.51;43.78
39275;BME280;24980;48.874;2.332;2023-04-26T09:21:08;101258.13;;;25.50;43.79
39275;BME280;24980;48.874;2.332;2023-04-26T09:24:00;101259.48;;;25.51;43.80
39275;BME280;24980;48.874;2.332;2023-04-26T09:26:15;101257.70;;;25.50;43.83
39275;BME280;24980;48.874;2.332;2023-04-26T09:28:45;101257.82;;;25.47;43.83
39275;BME280;24980;48.874;2.332;2023-04-26T09:31:35;101262.04;;;25.45;43.85
39275;BME280;24980;48.874;2.332;2023-04-26T09:34:00;101260.61;;;25.44;43.86
39275;BME280;24980;48.874;2.332;2023-04-26T09:36:11;101259.39;;;25.41;43.87
39275;BME280;24980;48.874;2.332;2023-04-26T09:38:41;101263.14;;;25.40;43.89
39275;BME280;24980;48.874;2.332;2023-04-26T09:41:14;101265.27;;;25.40;43.96
39275;BME280;24980;48.874;2.332;2023-04-26T09:43:42;101259.03;;;25.39;44.04
39275;BME280;24980;48.874;2.332;2023-04-26T09:46:23;101249.71;;;25.38;44.10
39275;BME280;24980;48.874;2.332;2023-04-26T09:48:43;101243.61;;;25.37;44.14
39275;BME280;24980;48.874;2.332;2023-04-26T09:51:13;101256.81;;;25.35;44.15
39275;BME280;24980;48.874;2.332;2023-04-26T09:53:48;101247.66;;;25.34;44.15
39275;BME280;24980;48.874;2.332;2023-04-26T09:56:17;101238.12;;;25.33;44.18
39275;BME280;24980;48.874;2.332;2023-04-26T09:58:55;101241.54;;;25.31;44.18
39275;BME280;24980;48.874;2.332;2023-04-26T10:01:14;101236.84;;;25.29;44.19
39275;BME280;24980;48.874;2.332;2023-04-26T10:03:48;101235.91;;;25.28;44.19
39275;BME280;24980;48.874;2.332;2023-04-26T10:06:14;101232.15;;;25.26;44.19
39275;BME280;24980;48.874;2.332;2023-04-26T10:08:44;101232.67;;;25.25;44.18
39275;BME280;24980;48.874;2.332;2023-04-26T10:11:14;101228.53;;;25.24;44.19
39275;BME280;24980;48.874;2.332;2023-04-26T10:13:45;101231.88;;;25.23;44.21
39275;BME280;24980;48.874;2.332;2023-04-26T10:16:15;101227.23;;;25.21;44.20
39275;BME280;24980;48.874;2.332;2023-04-26T10:18:45;101222.35;;;25.20;44.21
39275;BME280;24980;48.874;2.332;2023-04-26T10:21:28;101224.23;;;25.19;44.25
39275;BME280;24980;48.874;2.332;2023-04-26T10:23:47;101219.84;;;25.18;44.26
39275;BME280;24980;48.874;2.332;2023-04-26T10:26:53;101217.93;;;25.16;44.28
39275;BME280;24980;48.874;2.332;2023-04-26T10:28:54;101221.09;;;25.15;44.30
39275;BME280;24980;48.874;2.332;2023-04-26T10:31:18;101215.88;;;25.13;44.32
39275;BME280;24980;48.874;2.332;2023-04-26T10:36:19;101215.95;;;25.10;44.35
39275;BME280;24980;48.874;2.332;2023-04-26T10:39:16;101217.45;;;25.07;44.37
39275;BME280;24980;48.874;2.332;2023-04-26T10:41:35;101210.68;;;25.05;44.38
39275;BME280;24980;48.874;2.332;2023-04-26T10:43:51;101209.88;;;25.04;44.38
39275;BME280;24980;48.874;2.332;2023-04-26T10:46:37;101201.75;;;25.03;44.43
39275;BME280;24980;48.874;2.332;2023-04-26T10:48:51;101210.24;;;25.02;44.49
39275;BME280;24980;48.874;2.332;2023-04-26T10:51:21;101213.84;;;25.01;44.54
39275;BME280;24980;48.874;2.332;2023-04-26T10:53:59;101208.17;;;25.00;44.59
39275;BME280;24980;48.874;2.332;2023-04-26T10:59:10;101212.05;;;24.98;44.58
39275;BME280;24980;48.874;2.332;2023-04-26T11:01:21;101207.39;;;24.97;44.56
39275;BME280;24980;48.874;2.332;2023-04-26T11:04:09;101202.58;;;24.95;44.53
39275;BME280;24980;48.874;2.332;2023-04-26T11:06:22;101203.90;;;24.93;44.51
39275;BME280;24980;48.874;2.332;2023-04-26T11:08:52;101201.74;;;24.92;44.50
39275;BME280;24980;48.874;2.332;2023-04-26T11:11:25;101199.39;;;24.89;44.50
39275;BME280;24980;48.874;2.332;2023-04-26T11:13:55;101198.17;;;24.88;44.51
39275;BME280;24980;48.874;2.332;2023-04-26T11:16:27;101196.22;;;24.87;44.50
39275;BME280;24980;48.874;2.332;2023-04-26T11:18:55;101195.47;;;24.86;44.49
39275;BME280;24980;48.874;2.332;2023-04-26T11:21:25;101194.08;;;24.84;44.47
39275;BME280;24980;48.874;2.332;2023-04-26T11:24:01;101193.67;;;24.82;44.46
39275;BME280;24980;48.874;2.332;2023-04-26T11:26:40;101193.18;;;24.81;44.46
39275;BME280;24980;48.874;2.332;2023-04-26T11:28:56;101192.01;;;24.79;44.44
39275;BME280;24980;48.874;2.332;2023-04-26T11:31:29;101189.85;;;24.78;44.43
39275;BME280;24980;48.874;2.332;2023-04-26T11:34:02;101192.15;;;24.77;44.43
39275;BME280;24980;48.874;2.332;2023-04-26T11:36:27;101189.48;;;24.75;44.42
39275;BME280;24980;48.874;2.332;2023-04-26T11:38:57;101185.77;;;24.74;44.41
39275;BME280;24980;48.874;2.332;2023-04-26T11:41:27;101182.05;;;24.72;44.39
39275;BME280;24980;48.874;2.332;2023-04-26T11:43:58;101184.38;;;24.71;44.39
39275;BME280;24980;48.874;2.332;2023-04-26T11:46:28;101184.73;;;24.70;44.39
39275;BME280;24980;48.874;2.332;2023-04-26T11:48:58;101181.65;;;24.68;44.39
39275;BME280;24980;48.874;2.332;2023-04-26T11:51:30;101181.88;;;24.66;44.37
39275;BME280;24980;48.874;2.332;2023-04-26T11:53:59;101176.38;;;24.64;44.37
39275;BME280;24980;48.874;2.332;2023-04-26T11:56:32;101175.95;;;24.64;44.37
39275;BME280;24980;48.874;2.332;2023-04-26T11:58:59;101172.53;;;24.62;44.38
39275;BME280;24980;48.874;2.332;2023-04-26T12:01:31;101167.36;;;24.62;44.39
39275;BME280;24980;48.874;2.332;2023-04-26T12:04:00;101171.53;;;24.60;44.41
39275;BME280;24980;48.874;2.332;2023-04-26T12:06:41;101165.34;;;24.60;44.46
39275;BME280;24980;48.874;2.332;2023-04-26T12:09:01;101164.24;;;24.60;44.52
39275;BME280;24980;48.874;2.332;2023-04-26T12:11:31;101162.72;;;24.59;44.55
39275;BME280;24980;48.874;2.332;2023-04-26T12:14:02;101162.17;;;24.59;44.58
39275;BME280;24980;48.874;2.332;2023-04-26T12:16:34;101160.39;;;24.58;44.56
39275;BME280;24980;48.874;2.332;2023-04-26T12:19:06;101163.61;;;24.58;44.54
39275;BME280;24980;48.874;2.332;2023-04-26T12:21:42;101164.12;;;24.58;44.51
39275;BME280;24980;48.874;2.332;2023-04-26T12:24:08;101160.83;;;24.57;44.49
39275;BME280;24980;48.874;2.332;2023-04-26T12:26:47;101159.77;;;24.56;44.45
39275;BME280;24980;48.874;2.332;2023-04-26T12:29:05;101160.04;;;24.54;44.44
39275;BME280;24980;48.874;2.332;2023-04-26T12:31:35;101160.55;;;24.54;44.42
39275;BME280;24980;48.874;2.332;2023-04-26T12:34:05;101158.22;;;24.53;44.41
39275;BME280;24980;48.874;2.332;2023-04-26T12:36:36;101155.78;;;24.51;44.41
39275;BME280;24980;48.874;2.332;2023-04-26T12:39:05;101152.98;;;24.51;44.40
39275;BME280;24980;48.874;2.332;2023-04-26T12:41:35;101159.25;;;24.51;44.40
39275;BME280;24980;48.874;2.332;2023-04-26T12:44:06;101156.92;;;24.50;44.39
39275;BME280;24980;48.874;2.332;2023-04-26T12:46:35;101160.83;;;24.49;44.38
39275;BME280;24980;48.874;2.332;2023-04-26T12:49:06;101165.84;;;24.48;44.37
39275;BME280;24980;48.874;2.332;2023-04-26T12:51:36;101168.90;;;24.47;44.36
39275;BME280;24980;48.874;2.332;2023-04-26T12:54:06;101167.25;;;24.46;44.34
39275;BME280;24980;48.874;2.332;2023-04-26T12:56:36;101175.30;;;24.45;44.34
39275;BME280;24980;48.874;2.332;2023-04-26T12:59:06;101178.61;;;24.44;44.33
39275;BME280;24980;48.874;2.332;2023-04-26T13:01:36;101175.69;;;24.43;44.33
39275;BME280;24980;48.874;2.332;2023-04-26T13:04:07;101169.59;;;24.42;44.32
39275;BME280;24980;48.874;2.332;2023-04-26T13:06:38;101171.12;;;24.42;44.31
39275;BME280;24980;48.874;2.332;2023-04-26T13:09:07;101173.08;;;24.41;44.29
39275;BME280;24980;48.874;2.332;2023-04-26T13:11:37;101174.10;;;24.40;44.29
39275;BME280;24980;48.874;2.332;2023-04-26T13:14:08;101180.32;;;24.40;44.29
39275;BME280;24980;48.874;2.332;2023-04-26T13:16:38;101174.14;;;24.39;44.29